createdAt,value
2022-10-15T00:02:58.200Z,100826.03
2022-10-15T00:06:07.320Z,100813.06
2022-10-15T00:09:20.560Z,100810.41
2022-10-15T00:12:43.498Z,100808.13
2022-10-15T00:16:03.382Z,100815.41
2022-10-15T00:19:23.702Z,100812.41
2022-10-15T00:22:27.524Z,100802.94
2022-10-15T00:25:34.649Z,100805.72
2022-10-15T00:28:56.131Z,100807.91
2022-10-15T00:32:18.038Z,100809.00
2022-10-15T00:35:39.035Z,100806.28
2022-10-15T00:39:01.263Z,100800.63
2022-10-15T00:42:25.737Z,100793.34
2022-10-15T00:45:42.330Z,100801.00
2022-10-15T00:49:14.067Z,100797.19
2022-10-15T00:52:38.341Z,100783.38
2022-10-15T00:55:48.243Z,100784.97
2022-10-15T00:59:05.544Z,100789.91
2022-10-15T01:02:25.715Z,100785.31
2022-10-15T01:05:51.398Z,100776.19
2022-10-15T01:08:54.342Z,100773.72
2022-10-15T01:12:00.876Z,100780.47
2022-10-15T01:15:15.859Z,100782.50
2022-10-15T01:19:16.223Z,100775.16
2022-10-15T01:23:05.374Z,100782.69
2022-10-15T01:26:33.400Z,100768.09
2022-10-15T01:30:11.572Z,100775.16
2022-10-15T01:33:42.523Z,100783.50
2022-10-15T01:37:19.189Z,100777.81
2022-10-15T01:41:08.195Z,100773.47
2022-10-15T01:44:52.165Z,100771.06
2022-10-15T01:48:13.752Z,100771.88
2022-10-15T01:51:34.189Z,100771.09
2022-10-15T01:54:47.156Z,100769.78
2022-10-15T01:57:59.247Z,100772.75
2022-10-15T02:01:02.239Z,100772.19
2022-10-15T02:04:24.760Z,100762.44
2022-10-15T02:07:44.658Z,100778.44
2022-10-15T02:10:58.996Z,100770.84
2022-10-15T02:14:20.900Z,100773.56
2022-10-15T02:18:22.164Z,100785.75
2022-10-15T02:21:58.318Z,100771.41
2022-10-15T02:25:29.594Z,100774.44
2022-10-15T02:28:39.414Z,100774.41
2022-10-15T02:31:54.560Z,100764.66
2022-10-15T02:34:58.343Z,100758.72
2022-10-15T02:38:08.074Z,100762.25
2022-10-15T02:41:19.799Z,100766.84
2022-10-15T02:44:41.837Z,100755.19
2022-10-15T02:48:04.717Z,100761.72
2022-10-15T02:51:21.229Z,100760.94
2022-10-15T02:54:34.582Z,100756.59
2022-10-15T02:57:50.052Z,100759.06
2022-10-15T03:01:12.664Z,100748.00
2022-10-15T03:04:22.525Z,100751.03
2022-10-15T03:07:38.004Z,100736.44
2022-10-15T03:10:50.684Z,100742.72
2022-10-15T03:14:06.940Z,100756.22
2022-10-15T03:17:10.423Z,100747.28
2022-10-15T03:20:19.564Z,100743.75
2022-10-15T03:26:52.168Z,100741.09
2022-10-15T03:30:14.928Z,100741.34
2022-10-15T03:33:36.792Z,100741.91
2022-10-15T03:36:58.809Z,100749.72
2022-10-15T03:40:19.811Z,100756.75
2022-10-15T03:43:42.931Z,100766.81
2022-10-15T03:47:05.899Z,100751.91
2022-10-15T03:50:18.371Z,100760.03
2022-10-15T03:53:41.861Z,100761.38
2022-10-15T03:57:11.998Z,100761.38
2022-10-15T04:00:35.353Z,100766.25
2022-10-15T04:03:56.925Z,100760.31
2022-10-15T04:07:18.923Z,100737.91
2022-10-15T04:10:36.853Z,100745.22
2022-10-15T04:14:02.900Z,100746.31
2022-10-15T04:17:15.969Z,100747.13
2022-10-15T04:20:21.237Z,100738.19
2022-10-15T04:23:28.931Z,100745.78
2022-10-15T04:26:55.081Z,100742.53
2022-10-15T04:30:05.472Z,100739.81
2022-10-15T04:33:21.715Z,100744.41
2022-10-15T04:36:50.469Z,100747.38
2022-10-15T04:40:15.399Z,100762.81
2022-10-15T04:43:34.547Z,100765.50
2022-10-15T04:46:48.618Z,100758.75
2022-10-15T04:50:19.772Z,100764.44
2022-10-15T04:53:42.319Z,100757.66
2022-10-15T04:57:02.599Z,100759.03
2022-10-15T05:00:07.107Z,100753.09
2022-10-15T05:03:10.262Z,100752.53
2022-10-15T05:06:28.579Z,100756.53
2022-10-15T05:09:46.455Z,100755.69
2022-10-15T05:12:56.634Z,100765.75
2022-10-15T05:16:25.202Z,100773.31
2022-10-15T05:19:28.100Z,100773.09
2022-10-15T05:22:32.529Z,100771.44
2022-10-15T05:25:53.163Z,100769.53
2022-10-15T05:29:06.634Z,100764.94
2022-10-15T05:32:12.377Z,100767.63
2022-10-15T05:35:16.548Z,100769.22
2022-10-15T05:38:36.355Z,100761.09
2022-10-15T05:41:46.142Z,100762.72
2022-10-15T05:45:02.914Z,100756.47
2022-10-15T05:48:07.473Z,100754.09
2022-10-15T05:51:15.683Z,100766.00
2022-10-15T05:54:24.039Z,100767.91
2022-10-15T05:57:26.948Z,100776.03
2022-10-15T06:00:34.760Z,100768.97
2022-10-15T06:04:00.525Z,100774.38
2022-10-15T06:07:38.513Z,100780.56
2022-10-15T06:11:16.577Z,100791.34
2022-10-15T06:14:37.639Z,100799.72
2022-10-15T06:17:43.064Z,100799.97
2022-10-15T06:20:52.837Z,100803.94
2022-10-15T06:23:56.772Z,100799.03
2022-10-15T06:27:18.002Z,100806.31
2022-10-15T06:30:40.494Z,100805.75
2022-10-15T06:34:00.662Z,100807.31
2022-10-15T06:37:16.427Z,100811.91
2022-10-15T06:40:49.192Z,100811.59
2022-10-15T06:44:02.646Z,100805.91
2022-10-15T06:47:26.743Z,100808.38
2022-10-15T06:50:50.241Z,100810.22
2022-10-15T06:54:06.031Z,100818.25
2022-10-15T06:57:34.424Z,100820.28
2022-10-15T07:00:55.641Z,100814.16
2022-10-15T07:04:15.480Z,100826.28
2022-10-15T07:07:31.946Z,100822.97
2022-10-15T07:10:41.005Z,100828.38
2022-10-15T07:13:50.892Z,100827.97
2022-10-15T07:17:00.714Z,100839.03
2022-10-15T07:20:05.389Z,100836.72
2022-10-15T07:23:08.471Z,100846.06
2022-10-15T07:26:22.582Z,100830.72
2022-10-15T07:29:37.449Z,100836.69
2022-10-15T07:32:40.612Z,100820.28
2022-10-15T07:35:59.553Z,100823.81
2022-10-15T07:39:06.008Z,100823.69
2022-10-15T07:42:16.750Z,100828.03
2022-10-15T07:45:22.929Z,100829.19
2022-10-15T07:48:26.837Z,100829.69
2022-10-15T07:51:33.683Z,100823.75
2022-10-15T07:54:54.233Z,100833.50
2022-10-15T07:58:19.292Z,100824.59
2022-10-15T08:01:41.293Z,100829.97
2022-10-15T08:04:57.333Z,100835.59
2022-10-15T08:08:11.087Z,100839.75
2022-10-15T08:11:34.255Z,100833.75
2022-10-15T08:15:10.278Z,100849.28
2022-10-15T08:18:32.259Z,100849.06
2022-10-15T08:21:53.162Z,100844.94
2022-10-15T08:25:10.398Z,100842.81
2022-10-15T08:28:13.563Z,100851.31
2022-10-15T08:31:18.835Z,100848.88
2022-10-15T08:34:33.787Z,100846.78
2022-10-15T08:37:54.782Z,100841.03
2022-10-15T08:41:18.796Z,100831.75
2022-10-15T08:44:31.790Z,100836.84
2022-10-15T08:47:57.163Z,100833.50
2022-10-15T08:51:21.390Z,100835.19
2022-10-15T08:54:35.603Z,100838.81
2022-10-15T08:58:01.164Z,100828.34
2022-10-15T09:01:44.056Z,100838.50
2022-10-15T09:05:14.177Z,100829.34
2022-10-15T09:08:27.969Z,100836.53
2022-10-15T09:11:50.919Z,100831.28
2022-10-15T09:15:00.484Z,100840.25
2022-10-15T09:18:21.358Z,100848.97
2022-10-15T09:21:43.717Z,100841.31
2022-10-15T09:25:05.700Z,100847.34
2022-10-15T09:28:20.038Z,100846.06
2022-10-15T09:31:49.853Z,100851.53
2022-10-15T09:35:19.195Z,100850.63
2022-10-15T09:39:07.158Z,100844.84
2022-10-15T09:42:14.333Z,100835.06
2022-10-15T09:45:25.966Z,100832.78
2022-10-15T09:48:42.726Z,100840.22
2022-10-15T09:52:05.171Z,100848.91
2022-10-15T09:55:36.901Z,100849.22
2022-10-15T09:58:57.015Z,100845.19
2022-10-15T10:02:20.280Z,100839.28
2022-10-15T10:05:33.959Z,100833.00
2022-10-15T10:09:00.060Z,100824.28
2022-10-15T10:12:25.378Z,100823.63
2022-10-15T10:15:39.940Z,100815.84
2022-10-15T10:19:19.136Z,100824.44
2022-10-15T10:22:27.495Z,100828.50
2022-10-15T10:25:42.547Z,100820.75
2022-10-15T10:29:15.860Z,100823.47
2022-10-15T10:32:38.700Z,100820.38
2022-10-15T10:35:50.840Z,100815.78
2022-10-15T10:39:29.961Z,100806.94
2022-10-15T10:42:39.885Z,100802.69
2022-10-15T10:46:01.141Z,100803.06
2022-10-15T10:49:32.810Z,100800.91
2022-10-15T10:52:47.570Z,100791.59
2022-10-15T10:56:11.973Z,100792.28
2022-10-15T10:59:32.109Z,100790.13
2022-10-15T11:02:51.932Z,100795.75
2022-10-15T11:06:27.514Z,100773.06
2022-10-15T11:09:50.052Z,100786.19
2022-10-15T11:13:04.762Z,100786.53
2022-10-15T11:16:16.289Z,100784.25
2022-10-15T11:20:20.387Z,100779.44
2022-10-15T11:23:35.506Z,100764.75
2022-10-15T11:27:15.833Z,100768.09
2022-10-15T11:30:47.530Z,100756.78
2022-10-15T11:34:12.546Z,100744.00
2022-10-15T11:38:03.733Z,100729.81
2022-10-15T11:42:03.751Z,100724.03
2022-10-15T11:45:26.601Z,100738.34
2022-10-15T11:48:42.299Z,100726.09
2022-10-15T11:52:29.774Z,100733.31
2022-10-15T11:56:02.661Z,100733.41
2022-10-15T11:59:37.890Z,100724.38
2022-10-15T12:02:45.930Z,100727.94
2022-10-15T12:06:06.459Z,100723.16
2022-10-15T12:09:18.745Z,100719.72
2022-10-15T12:12:58.592Z,100711.38
2022-10-15T12:16:26.857Z,100716.28
2022-10-15T12:19:56.977Z,100711.00
2022-10-15T12:23:01.614Z,100710.78
2022-10-15T12:26:33.519Z,100712.50
2022-10-15T12:29:43.043Z,100714.69
2022-10-15T12:32:59.684Z,100705.75
2022-10-15T12:36:29.269Z,100708.03
2022-10-15T12:39:52.844Z,100706.91
2022-10-15T12:43:22.227Z,100706.56
2022-10-15T12:46:39.372Z,100698.19
2022-10-15T12:50:02.680Z,100698.31
2022-10-15T12:53:32.773Z,100694.97
2022-10-15T12:56:41.994Z,100683.97
2022-10-15T13:00:06.566Z,100691.56
2022-10-15T13:03:34.895Z,100689.59
2022-10-15T13:06:48.695Z,100691.91
2022-10-15T13:09:59.605Z,100693.38
2022-10-15T13:13:24.597Z,100695.69
2022-10-15T13:16:49.617Z,100691.09
2022-10-15T13:20:17.709Z,100692.78
2022-10-15T13:23:36.667Z,100702.88
2022-10-15T13:26:54.525Z,100695.69
2022-10-15T13:33:43.465Z,100698.22
2022-10-15T13:37:05.573Z,100701.63
2022-10-15T13:40:17.477Z,100699.13
2022-10-15T13:43:27.448Z,100699.13
2022-10-15T13:46:36.434Z,100703.69
2022-10-15T13:49:50.509Z,100715.59
2022-10-15T13:53:16.350Z,100712.50
2022-10-15T13:56:33.324Z,100706.66
2022-10-15T13:59:55.192Z,100709.28
2022-10-15T14:03:22.608Z,100704.16
2022-10-15T14:06:39.212Z,100710.91
2022-10-15T14:09:55.463Z,100705.63
2022-10-15T14:13:17.445Z,100700.47
2022-10-15T14:16:39.542Z,100701.16
2022-10-15T14:23:45.571Z,100695.72
2022-10-15T14:26:49.451Z,100692.53
2022-10-15T14:30:14.344Z,100693.22
2022-10-15T14:33:38.151Z,100692.75
2022-10-15T14:37:01.254Z,100694.91
2022-10-15T14:40:22.386Z,100689.41
2022-10-15T14:43:48.116Z,100688.00
2022-10-15T14:47:07.344Z,100679.16
2022-10-15T14:50:30.310Z,100679.97
2022-10-15T14:53:53.278Z,100676.19
2022-10-15T14:57:03.262Z,100682.81
2022-10-15T15:00:24.274Z,100680.75
2022-10-15T15:03:43.168Z,100682.88
2022-10-15T15:06:59.358Z,100686.81
2022-10-15T15:10:29.208Z,100699.41
2022-10-15T15:14:04.577Z,100701.00
2022-10-15T15:17:26.508Z,100706.22
2022-10-15T15:20:49.474Z,100699.78
2022-10-15T15:24:09.314Z,100703.84
2022-10-15T15:27:33.367Z,100699.47
2022-10-15T15:30:45.267Z,100701.28
2022-10-15T15:34:08.277Z,100694.06
2022-10-15T15:37:33.409Z,100688.91
2022-10-15T15:40:54.244Z,100697.00
2022-10-15T15:44:19.303Z,100694.47
2022-10-15T15:47:39.298Z,100703.84
2022-10-15T15:50:59.155Z,100698.84
2022-10-15T15:54:22.167Z,100702.88
2022-10-15T15:57:45.339Z,100703.53
2022-10-15T16:01:08.212Z,100712.09
2022-10-15T16:04:22.038Z,100712.75
2022-10-15T16:07:45.118Z,100722.91
2022-10-15T16:11:06.551Z,100727.31
2022-10-15T16:14:11.084Z,100736.94
2022-10-15T16:17:18.830Z,100735.53
2022-10-15T16:20:48.426Z,100743.28
2022-10-15T16:27:13.891Z,100749.75
2022-10-15T16:30:23.695Z,100739.28
2022-10-15T16:33:28.193Z,100752.50
2022-10-15T16:36:44.366Z,100750.44
2022-10-15T16:39:51.651Z,100742.53
2022-10-15T16:43:05.140Z,100760.75
2022-10-15T16:46:12.525Z,100763.19
2022-10-15T16:49:19.461Z,100771.41
2022-10-15T16:52:41.990Z,100769.31
2022-10-15T16:55:52.876Z,100777.19
2022-10-15T16:59:09.046Z,100778.00
2022-10-15T17:02:44.996Z,100784.63
2022-10-15T17:06:11.973Z,100785.75
2022-10-15T17:09:32.913Z,100784.47
2022-10-15T17:12:53.871Z,100785.59
2022-10-15T17:16:24.017Z,100800.75
2022-10-15T17:19:44.975Z,100791.09
2022-10-15T17:23:02.127Z,100791.56
2022-10-15T17:26:26.105Z,100799.16
2022-10-15T17:29:35.622Z,100801.75
2022-10-15T17:33:04.527Z,100810.28
2022-10-15T17:36:32.902Z,100809.31
2022-10-15T17:39:54.974Z,100820.91
2022-10-15T17:42:58.271Z,100822.16
2022-10-15T17:46:24.907Z,100819.13
2022-10-15T17:50:00.891Z,100820.88
2022-10-15T17:53:18.978Z,100820.41
2022-10-15T17:56:43.907Z,100818.81
2022-10-15T18:00:07.430Z,100824.28
2022-10-15T18:03:32.937Z,100835.41
2022-10-15T18:06:49.165Z,100831.53
2022-10-15T18:10:10.922Z,100831.84
2022-10-15T18:13:34.978Z,100828.13
2022-10-15T18:16:52.253Z,100846.97
2022-10-15T18:20:11.822Z,100845.38
2022-10-15T18:23:33.974Z,100842.16
2022-10-15T18:26:54.996Z,100846.34
2022-10-15T18:30:13.541Z,100852.63
2022-10-15T18:33:38.857Z,100857.63
2022-10-15T18:36:57.207Z,100847.47
2022-10-15T18:40:13.885Z,100854.69
2022-10-15T18:43:32.789Z,100852.13
2022-10-15T18:46:42.272Z,100851.47
2022-10-15T18:49:49.100Z,100854.84
2022-10-15T18:53:05.094Z,100851.31
2022-10-15T18:56:20.740Z,100846.97
2022-10-15T18:59:48.885Z,100855.03
2022-10-15T19:03:08.734Z,100852.78
2022-10-15T19:06:35.915Z,100864.03
2022-10-15T19:09:43.036Z,100865.47
2022-10-15T19:12:46.488Z,100858.09
2022-10-15T19:15:49.528Z,100856.47
2022-10-15T19:18:56.447Z,100856.97
2022-10-15T19:22:00.111Z,100868.84
2022-10-15T19:25:13.751Z,100869.16
2022-10-15T19:28:33.705Z,100869.50
2022-10-15T19:31:53.640Z,100881.41
2022-10-15T19:35:16.757Z,100878.03
2022-10-15T19:38:40.731Z,100885.72
2022-10-15T19:42:01.555Z,100890.69
2022-10-15T19:45:24.615Z,100892.97
2022-10-15T19:48:48.615Z,100907.78
2022-10-15T19:52:10.650Z,100906.97
2022-10-15T19:55:35.544Z,100906.47
2022-10-15T19:58:56.606Z,100901.66
2022-10-15T20:02:17.576Z,100906.47
2022-10-15T20:05:40.573Z,100910.97
2022-10-15T20:09:02.580Z,100909.53
2022-10-15T20:12:18.695Z,100916.13
2022-10-15T20:15:45.547Z,100922.38
2022-10-15T20:19:08.526Z,100925.28
2022-10-15T20:22:29.552Z,100918.78
2022-10-15T20:25:49.677Z,100923.34
2022-10-15T20:29:09.668Z,100927.53
2022-10-15T20:32:36.534Z,100934.59
2022-10-15T20:35:50.590Z,100935.41
2022-10-15T20:39:14.488Z,100937.03
2022-10-15T20:42:40.656Z,100945.06
2022-10-15T20:45:54.879Z,100953.84
2022-10-15T20:49:17.488Z,100956.09
2022-10-15T20:52:33.545Z,100959.28
2022-10-15T20:55:53.670Z,100963.63
2022-10-15T20:59:05.395Z,100967.03
2022-10-15T21:02:12.725Z,100950.16
2022-10-15T21:05:33.258Z,100951.28
2022-10-15T21:08:56.506Z,100949.66
2022-10-15T21:12:18.265Z,100958.00
2022-10-15T21:15:39.319Z,100959.75
2022-10-15T21:19:00.163Z,100971.81
2022-10-15T21:22:22.154Z,100971.66
2022-10-15T21:25:44.383Z,100962.97
2022-10-15T21:29:10.283Z,100961.84
2022-10-15T21:32:26.492Z,100960.25
2022-10-15T21:35:47.343Z,100956.03
2022-10-15T21:39:12.423Z,100964.03
2022-10-15T21:42:15.399Z,100961.91
2022-10-15T21:45:39.305Z,100953.53
2022-10-15T21:49:15.307Z,100972.34
2022-10-15T21:52:35.407Z,100973.16
2022-10-15T21:56:03.327Z,100971.22
2022-10-15T21:59:26.309Z,100984.41
2022-10-15T22:02:52.335Z,100983.59
2022-10-15T22:06:02.229Z,100984.41
2022-10-15T22:09:05.083Z,100986.31
2022-10-15T22:12:28.442Z,100986.00
2022-10-15T22:15:35.498Z,100992.91
2022-10-15T22:18:51.702Z,100980.38
2022-10-15T22:22:07.634Z,100988.25
2022-10-15T22:25:23.324Z,100985.84
2022-10-15T22:28:53.296Z,100987.13
2022-10-15T22:32:18.271Z,100986.31
2022-10-15T22:35:43.754Z,100986.47
2022-10-15T22:39:06.824Z,100990.00
2022-10-15T22:42:29.287Z,100995.78
2022-10-15T22:45:42.805Z,100999.44
2022-10-15T22:49:00.170Z,100994.94
2022-10-15T22:52:28.826Z,101000.25
2022-10-15T22:55:59.712Z,101012.31
2022-10-15T22:59:15.315Z,101020.81
2022-10-15T23:02:42.337Z,101019.69
2022-10-15T23:06:06.819Z,101023.56
2022-10-15T23:09:27.901Z,101030.63
2022-10-15T23:12:49.949Z,101021.13
2022-10-15T23:16:12.939Z,101024.34
2022-10-15T23:19:34.994Z,101028.22
2022-10-15T23:22:56.903Z,101033.38
2022-10-15T23:26:18.357Z,101026.69
2022-10-15T23:29:27.990Z,101029.44
2022-10-15T23:32:51.113Z,101026.03
2022-10-15T23:36:26.975Z,101027.44
2022-10-15T23:39:36.935Z,101035.50
2022-10-15T23:42:54.721Z,101031.59
2022-10-15T23:46:10.345Z,101039.50
2022-10-15T23:49:39.132Z,101043.97
2022-10-15T23:53:16.048Z,101039.94
2022-10-15T23:56:26.939Z,101044.09
2022-10-15T23:59:50.067Z,101040.94
